createdAt,value
2019-01-26T00:00:47.937Z,53.70
2019-01-26T00:03:40.010Z,53.70
2019-01-26T00:06:32.404Z,53.70
2019-01-26T00:09:25.136Z,53.60
2019-01-26T00:12:17.572Z,53.70
2019-01-26T00:15:10.344Z,53.70
2019-01-26T00:18:02.615Z,53.70
2019-01-26T00:20:55.008Z,53.70
2019-01-26T00:23:47.433Z,53.60
2019-01-26T00:26:40.876Z,53.60
2019-01-26T00:29:33.564Z,53.60
2019-01-26T00:32:26.019Z,53.70
2019-01-26T00:35:16.331Z,53.60
2019-01-26T00:38:08.710Z,53.60
2019-01-26T00:41:01.153Z,53.60
2019-01-26T00:43:53.196Z,53.60
2019-01-26T00:46:46.054Z,53.60
2019-01-26T00:49:38.497Z,53.60
2019-01-26T00:52:30.975Z,53.60
2019-01-26T00:55:23.907Z,53.70
2019-01-26T00:58:16.127Z,53.70
2019-01-26T01:01:09.319Z,53.70
2019-01-26T01:04:02.194Z,53.80
2019-01-26T01:06:54.330Z,53.80
2019-01-26T01:09:46.752Z,53.80
2019-01-26T01:12:39.011Z,53.80
2019-01-26T01:15:31.330Z,53.70
2019-01-26T01:18:23.703Z,53.80
2019-01-26T01:21:16.508Z,53.80
2019-01-26T01:27:00.696Z,53.80
2019-01-26T01:29:51.207Z,54.10
2019-01-26T01:32:43.704Z,54.10
2019-01-26T01:35:36.296Z,54.00
2019-01-26T01:38:29.251Z,54.00
2019-01-26T01:41:21.814Z,53.90
2019-01-26T01:44:14.929Z,54.00
2019-01-26T01:47:07.612Z,53.90
2019-01-26T01:50:00.003Z,54.00
2019-01-26T01:52:52.710Z,53.90
2019-01-26T01:55:45.326Z,53.90
2019-01-26T01:58:37.765Z,53.90
2019-01-26T02:01:30.256Z,53.90
2019-01-26T02:04:22.521Z,53.90
2019-01-26T02:07:14.986Z,54.00
2019-01-26T02:10:08.268Z,54.00
2019-01-26T02:13:02.216Z,54.00
2019-01-26T02:15:54.669Z,54.00
2019-01-26T02:18:47.422Z,54.00
2019-01-26T02:21:40.232Z,54.00
2019-01-26T02:24:32.969Z,54.00
2019-01-26T02:27:25.890Z,54.00
2019-01-26T02:30:20.167Z,54.00
2019-01-26T02:33:12.601Z,54.10
2019-01-26T02:36:05.399Z,54.10
2019-01-26T02:38:58.211Z,54.40
2019-01-26T02:41:51.139Z,54.50
2019-01-26T02:44:43.285Z,54.30
2019-01-26T02:47:39.498Z,54.40
2019-01-26T02:50:32.001Z,54.30
2019-01-26T02:53:24.424Z,54.30
2019-01-26T02:56:19.093Z,54.20
2019-01-26T02:59:11.334Z,54.20
2019-01-26T03:02:04.507Z,54.30
2019-01-26T03:04:57.994Z,54.30
2019-01-26T03:07:52.060Z,54.20
2019-01-26T03:10:44.913Z,54.30
2019-01-26T03:13:37.691Z,54.30
2019-01-26T03:16:30.584Z,54.30
2019-01-26T03:19:22.870Z,54.30
2019-01-26T03:22:16.418Z,54.40
2019-01-26T03:25:10.820Z,54.40
2019-01-26T03:28:02.669Z,54.40
2019-01-26T03:30:55.471Z,54.40
2019-01-26T03:33:47.870Z,54.30
2019-01-26T03:36:40.495Z,54.30
2019-01-26T03:39:32.823Z,54.40
2019-01-26T03:42:25.265Z,54.40
2019-01-26T03:45:19.105Z,54.40
2019-01-26T03:48:13.419Z,54.40
2019-01-26T03:51:07.065Z,54.40
2019-01-26T03:53:59.948Z,54.40
2019-01-26T03:56:52.732Z,54.30
2019-01-26T03:59:45.659Z,54.40
2019-01-26T04:02:38.084Z,54.50
2019-01-26T04:05:30.864Z,54.40
2019-01-26T04:08:23.758Z,54.40
2019-01-26T04:11:16.855Z,54.40
2019-01-26T04:14:09.704Z,54.50
2019-01-26T04:17:02.479Z,54.40
2019-01-26T04:19:55.705Z,54.40
2019-01-26T04:22:48.243Z,54.50
2019-01-26T04:25:40.946Z,54.40
2019-01-26T04:28:33.398Z,54.40
2019-01-26T04:31:26.492Z,54.40
2019-01-26T04:34:18.201Z,54.50
2019-01-26T04:37:12.115Z,55.60
2019-01-26T04:40:04.871Z,57.00
2019-01-26T04:42:57.647Z,57.50
2019-01-26T04:45:50.484Z,57.30
2019-01-26T04:48:43.738Z,56.80
2019-01-26T04:51:36.874Z,56.40
2019-01-26T04:54:30.210Z,56.20
2019-01-26T04:57:22.655Z,56.10
2019-01-26T05:00:17.289Z,56.00
2019-01-26T05:03:10.309Z,55.80
2019-01-26T05:06:03.710Z,55.70
2019-01-26T05:08:56.504Z,55.70
2019-01-26T05:11:48.988Z,55.60
2019-01-26T05:14:41.107Z,55.60
2019-01-26T05:20:23.430Z,55.50
2019-01-26T05:23:16.172Z,55.50
2019-01-26T05:26:09.459Z,55.50
2019-01-26T05:29:02.411Z,55.50
2019-01-26T05:31:55.915Z,55.40
2019-01-26T05:34:49.009Z,55.50
2019-01-26T05:37:41.601Z,55.50
2019-01-26T05:40:34.413Z,55.50
2019-01-26T05:43:26.663Z,55.50
2019-01-26T05:46:18.942Z,55.50
2019-01-26T05:49:11.258Z,55.30
2019-01-26T05:52:03.654Z,55.30
2019-01-26T05:54:55.991Z,55.40
2019-01-26T05:57:48.180Z,55.40
2019-01-26T06:00:40.949Z,55.40
2019-01-26T06:03:33.463Z,55.30
2019-01-26T06:06:26.100Z,55.40
2019-01-26T06:09:18.654Z,55.20
2019-01-26T06:12:11.059Z,55.20
2019-01-26T06:15:03.924Z,55.20
2019-01-26T06:17:56.424Z,55.30
2019-01-26T06:20:48.834Z,55.30
2019-01-26T06:23:41.008Z,55.30
2019-01-26T06:26:33.194Z,55.20
2019-01-26T06:29:25.604Z,55.20
2019-01-26T06:32:18.257Z,55.20
2019-01-26T06:35:10.781Z,55.20
2019-01-26T06:38:03.204Z,55.20
2019-01-26T06:40:55.382Z,55.20
2019-01-26T06:43:47.623Z,55.20
2019-01-26T06:46:40.004Z,55.20
2019-01-26T06:49:32.535Z,55.10
2019-01-26T06:52:24.616Z,55.20
2019-01-26T06:55:16.693Z,55.20
2019-01-26T06:58:09.304Z,55.30
2019-01-26T07:01:01.677Z,55.30
2019-01-26T07:03:54.138Z,55.30
2019-01-26T07:07:04.622Z,55.30
2019-01-26T07:09:57.528Z,55.30
2019-01-26T07:16:05.231Z,55.30
2019-01-26T07:18:58.530Z,55.30
2019-01-26T07:21:50.809Z,55.50
2019-01-26T07:24:44.261Z,55.50
2019-01-26T07:27:36.642Z,55.50
2019-01-26T07:30:29.562Z,55.50
2019-01-26T07:33:21.629Z,55.50
2019-01-26T07:36:13.924Z,55.50
2019-01-26T07:39:07.349Z,55.50
2019-01-26T07:42:00.150Z,56.20
2019-01-26T07:44:52.935Z,55.80
2019-01-26T07:47:45.093Z,55.70
2019-01-26T07:50:46.870Z,55.60
2019-01-26T07:53:39.640Z,55.50
2019-01-26T07:56:33.045Z,55.50
2019-01-26T07:59:25.674Z,55.60
2019-01-26T08:02:18.053Z,56.00
2019-01-26T08:05:11.402Z,55.70
2019-01-26T08:08:03.982Z,55.60
2019-01-26T08:10:56.727Z,55.70
2019-01-26T08:13:49.097Z,55.50
2019-01-26T08:16:41.346Z,55.50
2019-01-26T08:19:33.627Z,55.50
2019-01-26T08:22:25.995Z,55.50
2019-01-26T08:25:18.193Z,55.40
2019-01-26T08:28:11.035Z,55.40
2019-01-26T08:31:03.063Z,55.40
2019-01-26T08:33:55.449Z,55.50
2019-01-26T08:36:47.594Z,55.50
2019-01-26T08:39:40.044Z,55.40
2019-01-26T08:42:32.632Z,55.60
2019-01-26T08:45:25.416Z,55.50
2019-01-26T08:48:17.591Z,55.40
2019-01-26T08:51:10.462Z,55.40
2019-01-26T08:54:03.292Z,55.30
2019-01-26T08:56:56.012Z,55.50
2019-01-26T08:59:48.592Z,55.40
2019-01-26T09:03:14.528Z,55.50
2019-01-26T09:06:13.348Z,55.50
2019-01-26T09:09:07.284Z,55.40
2019-01-26T09:11:59.409Z,55.30
2019-01-26T09:14:52.387Z,55.50
2019-01-26T09:17:45.837Z,55.50
2019-01-26T09:20:39.006Z,55.40
2019-01-26T09:23:31.837Z,55.30
2019-01-26T09:26:25.654Z,55.40
2019-01-26T09:29:18.471Z,55.30
2019-01-26T09:32:11.576Z,55.30
2019-01-26T09:35:04.648Z,55.40
2019-01-26T09:37:57.609Z,55.50
2019-01-26T09:40:51.013Z,55.40
2019-01-26T09:43:43.604Z,55.40
2019-01-26T09:46:36.443Z,55.30
2019-01-26T09:49:31.871Z,55.30
2019-01-26T09:52:24.617Z,55.20
2019-01-26T09:55:17.738Z,56.00
2019-01-26T09:58:10.525Z,55.20
2019-01-26T10:01:03.282Z,55.20
2019-01-26T10:03:55.670Z,55.20
2019-01-26T10:06:47.830Z,55.20
2019-01-26T10:09:40.435Z,55.20
2019-01-26T10:12:32.797Z,55.10
2019-01-26T10:15:25.447Z,55.20
2019-01-26T10:18:17.800Z,55.10
2019-01-26T10:21:10.199Z,55.00
2019-01-26T10:24:03.257Z,55.10
2019-01-26T10:26:55.519Z,55.10
2019-01-26T10:29:48.225Z,55.10
2019-01-26T10:32:40.926Z,55.10
2019-01-26T10:36:07.180Z,55.10
2019-01-26T10:39:11.000Z,55.00
2019-01-26T10:42:27.032Z,55.10
2019-01-26T10:45:19.589Z,55.10
2019-01-26T10:48:13.837Z,55.00
2019-01-26T10:51:06.625Z,55.00
2019-01-26T10:53:57.251Z,55.00
2019-01-26T10:56:50.073Z,54.90
2019-01-26T10:59:42.576Z,55.00
2019-01-26T11:02:35.411Z,54.90
2019-01-26T11:05:28.038Z,55.00
2019-01-26T11:08:20.683Z,54.90
2019-01-26T11:11:18.616Z,55.00
2019-01-26T11:14:12.531Z,55.00
2019-01-26T11:17:04.902Z,55.00
2019-01-26T11:20:04.580Z,55.00
2019-01-26T11:22:57.637Z,55.00
2019-01-26T11:25:49.942Z,55.00
2019-01-26T11:28:42.867Z,54.90
2019-01-26T11:31:35.986Z,55.00
2019-01-26T11:34:28.666Z,54.80
2019-01-26T11:37:20.964Z,54.90
2019-01-26T11:40:25.656Z,54.80
2019-01-26T11:43:17.870Z,54.80
2019-01-26T11:46:19.669Z,54.80
2019-01-26T11:49:15.229Z,54.80
2019-01-26T11:52:09.344Z,54.70
2019-01-26T11:55:08.386Z,54.70
2019-01-26T11:58:01.774Z,54.90
2019-01-26T12:01:14.025Z,54.70
2019-01-26T12:04:21.503Z,54.80
2019-01-26T12:07:25.778Z,54.70
2019-01-26T12:10:18.335Z,54.70
2019-01-26T12:13:10.633Z,54.70
2019-01-26T12:16:03.831Z,54.70
2019-01-26T12:18:57.003Z,54.70
2019-01-26T12:21:49.502Z,54.70
2019-01-26T12:24:41.867Z,54.70
2019-01-26T12:27:34.136Z,54.70
2019-01-26T12:30:26.552Z,54.70
2019-01-26T12:33:19.120Z,54.70
2019-01-26T12:36:11.532Z,54.60
2019-01-26T12:39:03.713Z,54.70
2019-01-26T12:41:56.988Z,54.70
2019-01-26T12:44:49.814Z,54.70
2019-01-26T12:47:42.909Z,54.70
2019-01-26T12:50:35.814Z,54.70
2019-01-26T12:53:29.478Z,54.70
2019-01-26T12:56:22.671Z,54.60
2019-01-26T12:59:15.606Z,54.70
2019-01-26T13:04:57.607Z,54.60
2019-01-26T13:07:50.599Z,54.60
2019-01-26T13:10:44.530Z,54.60
2019-01-26T13:13:37.772Z,54.70
2019-01-26T13:16:30.003Z,54.70
2019-01-26T13:19:22.745Z,54.60
2019-01-26T13:22:15.621Z,54.70
2019-01-26T13:25:09.222Z,54.60
2019-01-26T13:28:01.477Z,54.60
2019-01-26T13:30:54.824Z,54.50
2019-01-26T13:33:47.321Z,54.60
2019-01-26T13:36:40.498Z,54.60
2019-01-26T13:39:34.466Z,54.40
2019-01-26T13:42:26.919Z,54.50
2019-01-26T13:45:19.477Z,54.60
2019-01-26T13:48:11.822Z,54.60
2019-01-26T13:51:03.973Z,54.50
2019-01-26T13:53:56.467Z,54.40
2019-01-26T13:56:49.093Z,54.60
2019-01-26T13:59:41.842Z,54.50
2019-01-26T14:02:34.014Z,54.50
2019-01-26T14:05:26.096Z,54.40
2019-01-26T14:08:18.081Z,54.40
2019-01-26T14:11:10.073Z,54.40
2019-01-26T14:14:02.400Z,54.40
2019-01-26T14:16:55.015Z,54.40
2019-01-26T14:19:51.200Z,54.40
2019-01-26T14:22:40.343Z,54.40
2019-01-26T14:25:32.886Z,54.40
2019-01-26T14:28:27.121Z,54.40
2019-01-26T14:31:19.958Z,54.40
2019-01-26T14:34:13.069Z,54.30
2019-01-26T14:37:06.078Z,54.30
2019-01-26T14:39:58.862Z,54.30
2019-01-26T14:42:54.446Z,54.30
2019-01-26T14:45:44.784Z,54.30
2019-01-26T14:48:36.902Z,54.30
2019-01-26T14:51:29.876Z,54.30
2019-01-26T14:54:21.927Z,54.30
2019-01-26T14:57:14.604Z,54.30
2019-01-26T15:00:07.955Z,54.30
2019-01-26T15:03:00.258Z,54.20
2019-01-26T15:05:52.874Z,54.30
2019-01-26T15:08:45.536Z,54.30
2019-01-26T15:11:38.284Z,54.20
2019-01-26T15:14:30.382Z,54.20
2019-01-26T15:17:22.778Z,54.20
2019-01-26T15:20:16.550Z,54.20
2019-01-26T15:23:09.155Z,54.20
2019-01-26T15:26:01.762Z,54.30
2019-01-26T15:28:55.259Z,54.20
2019-01-26T15:31:48.057Z,54.20
2019-01-26T15:34:41.155Z,54.20
2019-01-26T15:37:34.203Z,54.20
2019-01-26T15:40:26.608Z,54.20
2019-01-26T15:43:19.152Z,54.20
2019-01-26T15:46:11.443Z,54.20
2019-01-26T15:49:03.846Z,54.20
2019-01-26T15:51:55.959Z,54.20
2019-01-26T15:54:47.971Z,54.40
2019-01-26T15:57:40.286Z,54.30
2019-01-26T16:00:33.688Z,54.30
2019-01-26T16:03:25.935Z,54.20
2019-01-26T16:06:17.980Z,54.20
2019-01-26T16:09:11.381Z,54.20
2019-01-26T16:12:03.644Z,54.20
2019-01-26T16:14:55.746Z,54.20
2019-01-26T16:17:48.348Z,54.20
2019-01-26T16:20:40.983Z,54.20
2019-01-26T16:29:14.763Z,54.20
2019-01-26T16:32:07.354Z,54.10
2019-01-26T16:34:59.477Z,54.10
2019-01-26T16:37:51.830Z,54.10
2019-01-26T16:40:44.168Z,54.20
2019-01-26T16:43:36.313Z,54.10
2019-01-26T16:46:28.322Z,54.20
2019-01-26T16:49:21.110Z,54.10
2019-01-26T16:52:14.126Z,54.20
2019-01-26T16:55:06.710Z,54.20
2019-01-26T16:57:59.113Z,54.10
2019-01-26T17:00:56.157Z,54.20
2019-01-26T17:03:48.255Z,54.20
2019-01-26T17:06:40.558Z,54.10
2019-01-26T17:09:32.870Z,54.20
2019-01-26T17:12:25.140Z,54.20
2019-01-26T17:15:17.459Z,54.10
2019-01-26T17:18:13.814Z,54.10
2019-01-26T17:21:05.000Z,54.10
2019-01-26T17:23:57.344Z,54.10
2019-01-26T17:26:52.917Z,54.10
2019-01-26T17:29:42.779Z,54.10
2019-01-26T17:32:35.328Z,54.10
2019-01-26T17:35:27.885Z,54.10
2019-01-26T17:38:20.334Z,54.10
2019-01-26T17:41:12.177Z,54.10
2019-01-26T17:44:04.603Z,54.10
2019-01-26T17:46:56.897Z,54.10
2019-01-26T17:49:49.329Z,54.10
2019-01-26T17:52:41.436Z,54.10
2019-01-26T17:55:33.617Z,54.10
2019-01-26T17:58:27.082Z,54.00
2019-01-26T18:01:19.865Z,54.10
2019-01-26T18:04:11.964Z,54.00
2019-01-26T18:07:04.586Z,54.00
2019-01-26T18:09:56.907Z,54.00
2019-01-26T18:12:49.730Z,54.10
2019-01-26T18:15:42.583Z,54.00
2019-01-26T18:18:34.884Z,54.10
2019-01-26T18:21:26.911Z,54.10
2019-01-26T18:24:19.535Z,54.00
2019-01-26T18:27:11.506Z,54.00
2019-01-26T18:30:03.790Z,54.00
2019-01-26T18:32:56.381Z,54.00
2019-01-26T18:35:49.196Z,54.00
2019-01-26T18:38:41.550Z,54.00
2019-01-26T18:44:22.999Z,54.00
2019-01-26T18:47:15.758Z,54.00
2019-01-26T18:50:08.847Z,54.00
2019-01-26T18:53:01.186Z,54.00
2019-01-26T18:55:54.618Z,54.00
2019-01-26T18:58:47.084Z,54.00
2019-01-26T19:01:39.467Z,54.00
2019-01-26T19:04:37.555Z,54.00
2019-01-26T19:07:29.528Z,54.00
2019-01-26T19:10:21.867Z,54.00
2019-01-26T19:13:14.261Z,54.00
2019-01-26T19:16:06.957Z,54.00
2019-01-26T19:18:59.405Z,54.00
2019-01-26T19:21:51.726Z,54.00
2019-01-26T19:24:43.780Z,54.00
2019-01-26T19:27:35.810Z,54.00
2019-01-26T19:30:28.015Z,54.00
2019-01-26T19:33:20.914Z,54.00
2019-01-26T19:36:12.977Z,54.00
2019-01-26T19:39:05.723Z,54.00
2019-01-26T19:41:57.737Z,54.00
2019-01-26T19:44:49.810Z,54.00
2019-01-26T19:47:43.011Z,54.00
2019-01-26T19:50:35.522Z,54.00
2019-01-26T19:53:28.000Z,54.00
2019-01-26T19:56:20.861Z,54.00
2019-01-26T19:59:13.495Z,54.00
2019-01-26T20:02:07.046Z,54.00
2019-01-26T20:04:59.713Z,54.00
2019-01-26T20:07:52.029Z,54.00
2019-01-26T20:10:44.709Z,54.00
2019-01-26T20:13:37.050Z,54.00
2019-01-26T20:16:29.144Z,54.00
2019-01-26T20:19:21.102Z,54.00
2019-01-26T20:22:13.699Z,54.00
2019-01-26T20:25:06.141Z,54.00
2019-01-26T20:27:58.434Z,54.00
2019-01-26T20:30:52.302Z,54.00
2019-01-26T20:36:33.307Z,54.00
2019-01-26T20:39:25.763Z,54.00
2019-01-26T20:42:17.866Z,54.00
2019-01-26T20:45:11.476Z,54.00
2019-01-26T20:48:03.924Z,54.00
2019-01-26T20:50:56.248Z,54.00
2019-01-26T20:53:48.268Z,53.90
2019-01-26T20:56:40.518Z,54.00
2019-01-26T20:59:32.879Z,54.00
2019-01-26T21:02:25.563Z,54.00
2019-01-26T21:05:17.625Z,54.00
2019-01-26T21:08:09.950Z,54.00
2019-01-26T21:11:02.549Z,54.00
2019-01-26T21:13:54.556Z,54.00
2019-01-26T21:16:47.996Z,54.00
2019-01-26T21:19:40.408Z,54.00
2019-01-26T21:22:32.580Z,54.00
2019-01-26T21:25:24.820Z,54.00
2019-01-26T21:28:17.140Z,54.00
2019-01-26T21:31:09.678Z,54.00
2019-01-26T21:34:02.127Z,54.00
2019-01-26T21:36:54.587Z,54.00
2019-01-26T21:39:47.427Z,54.00
2019-01-26T21:42:39.696Z,54.00
2019-01-26T21:45:31.956Z,54.00
2019-01-26T21:48:24.241Z,53.90
2019-01-26T21:51:16.823Z,54.00
2019-01-26T21:54:08.990Z,53.90
2019-01-26T21:57:01.294Z,53.90
2019-01-26T21:59:53.660Z,54.00
2019-01-26T22:02:45.783Z,53.90
2019-01-26T22:05:38.238Z,53.90
2019-01-26T22:08:30.377Z,54.00
2019-01-26T22:11:22.419Z,54.00
2019-01-26T22:14:14.421Z,54.00
2019-01-26T22:17:06.452Z,54.00
2019-01-26T22:19:58.684Z,54.00
2019-01-26T22:22:51.781Z,54.00
2019-01-26T22:25:44.823Z,54.00
2019-01-26T22:28:37.162Z,54.10
2019-01-26T22:31:29.557Z,54.00
2019-01-26T22:34:21.647Z,54.00
2019-01-26T22:37:14.273Z,54.10
2019-01-26T22:40:07.347Z,54.00
2019-01-26T22:42:59.849Z,54.00
2019-01-26T22:45:52.567Z,54.00
2019-01-26T22:48:45.464Z,53.90
2019-01-26T22:51:37.636Z,53.90
2019-01-26T22:54:29.605Z,53.90
2019-01-26T22:57:21.691Z,53.90
2019-01-26T23:00:18.400Z,54.00
2019-01-26T23:03:12.138Z,53.90
2019-01-26T23:06:28.624Z,54.00
2019-01-26T23:09:26.518Z,53.90
2019-01-26T23:12:35.397Z,53.90
2019-01-26T23:15:49.281Z,53.90
2019-01-26T23:18:58.229Z,53.90
2019-01-26T23:22:11.662Z,53.80
2019-01-26T23:25:23.591Z,53.80
2019-01-26T23:28:32.311Z,53.80
2019-01-26T23:31:24.658Z,53.80
2019-01-26T23:34:17.418Z,53.80
2019-01-26T23:37:10.427Z,53.80
2019-01-26T23:40:03.031Z,54.40
2019-01-26T23:42:55.089Z,53.70
2019-01-26T23:45:47.190Z,53.80
2019-01-26T23:48:39.504Z,53.80
2019-01-26T23:51:31.849Z,53.70
2019-01-26T23:54:24.004Z,53.70
2019-01-26T23:57:16.735Z,53.70
